createdAt,value
2016-11-12T00:00:24.924Z,0
2016-11-12T00:01:23.853Z,0
2016-11-12T00:02:24.007Z,0
2016-11-12T00:03:24.438Z,0
2016-11-12T00:04:24.249Z,0
2016-11-12T00:05:24.645Z,0
2016-11-12T00:06:25.049Z,0
2016-11-12T00:07:24.326Z,0
2016-11-12T00:08:25.406Z,0
2016-11-12T00:09:24.918Z,0
2016-11-12T00:10:23.991Z,0
2016-11-12T00:11:24.929Z,0
2016-11-12T00:12:24.638Z,0
2016-11-12T00:13:24.205Z,0
2016-11-12T00:14:25.390Z,0
2016-11-12T00:15:23.784Z,0
2016-11-12T00:16:24.618Z,0
2016-11-12T00:17:24.872Z,0
2016-11-12T00:18:25.013Z,0
2016-11-12T00:19:24.493Z,0
2016-11-12T00:20:24.147Z,0
2016-11-12T00:21:24.647Z,0
2016-11-12T00:22:24.579Z,0
2016-11-12T00:23:24.723Z,0
2016-11-12T00:24:26.209Z,0
2016-11-12T00:25:24.647Z,0
2016-11-12T00:26:24.579Z,0
2016-11-12T00:27:24.569Z,0
2016-11-12T00:28:26.390Z,0
2016-11-12T00:29:24.718Z,0
2016-11-12T00:30:25.548Z,0
2016-11-12T00:31:25.991Z,0
2016-11-12T00:32:25.680Z,0
2016-11-12T00:33:24.962Z,0
2016-11-12T00:34:25.844Z,0
2016-11-12T00:35:25.315Z,0
2016-11-12T00:36:26.492Z,0
2016-11-12T00:37:25.010Z,0
2016-11-12T00:38:24.897Z,0
2016-11-12T00:39:25.270Z,0
2016-11-12T00:40:24.600Z,0
2016-11-12T00:41:25.654Z,0
2016-11-12T00:42:25.132Z,0
2016-11-12T00:43:25.859Z,0
2016-11-12T00:44:25.353Z,0
2016-11-12T00:45:24.987Z,0
2016-11-12T00:46:25.615Z,0
2016-11-12T00:47:25.160Z,0
2016-11-12T00:48:24.844Z,0
2016-11-12T00:49:25.556Z,0
2016-11-12T00:50:24.797Z,0
2016-11-12T00:51:24.520Z,0
2016-11-12T00:52:25.271Z,0
2016-11-12T00:53:24.659Z,0
2016-11-12T00:54:26.582Z,0
2016-11-12T00:55:25.936Z,0
2016-11-12T00:56:25.809Z,0
2016-11-12T00:57:25.890Z,0
2016-11-12T00:58:24.787Z,0
2016-11-12T00:59:25.260Z,0
2016-11-12T01:00:26.017Z,0
2016-11-12T01:01:25.246Z,0
2016-11-12T01:02:27.690Z,0
2016-11-12T01:03:25.055Z,0
2016-11-12T01:04:25.344Z,0
2016-11-12T01:05:24.791Z,0
2016-11-12T01:06:26.052Z,0
2016-11-12T01:07:26.491Z,0
2016-11-12T01:08:26.701Z,0
2016-11-12T01:09:24.690Z,0
2016-11-12T01:10:24.982Z,0
2016-11-12T01:11:26.017Z,0
2016-11-12T01:12:25.699Z,0
2016-11-12T01:13:25.754Z,0
2016-11-12T01:14:25.815Z,0
2016-11-12T01:15:26.288Z,0
2016-11-12T01:16:25.641Z,0
2016-11-12T01:17:25.312Z,0
2016-11-12T01:18:25.317Z,0
2016-11-12T01:19:24.851Z,0
2016-11-12T01:20:27.060Z,0
2016-11-12T01:21:25.052Z,0
2016-11-12T01:22:24.800Z,0
2016-11-12T01:23:26.518Z,0
2016-11-12T01:24:26.034Z,0
2016-11-12T01:25:24.719Z,0
2016-11-12T01:26:26.678Z,0
2016-11-12T01:27:26.303Z,0
2016-11-12T01:28:25.889Z,0
2016-11-12T01:29:26.318Z,0
2016-11-12T01:30:25.590Z,0
2016-11-12T01:31:24.968Z,0
2016-11-12T01:32:26.574Z,0
2016-11-12T01:33:26.298Z,0
2016-11-12T01:34:26.258Z,0
2016-11-12T01:35:26.107Z,0
2016-11-12T01:36:25.877Z,0
2016-11-12T01:37:26.026Z,0
2016-11-12T01:38:26.458Z,0
2016-11-12T01:39:25.876Z,0
2016-11-12T01:40:25.215Z,0
2016-11-12T01:41:26.403Z,0
2016-11-12T01:42:26.231Z,0
2016-11-12T01:43:28.383Z,0
2016-11-12T01:44:25.350Z,0
2016-11-12T01:45:26.368Z,0
2016-11-12T01:46:26.554Z,0
2016-11-12T01:47:26.083Z,0
2016-11-12T01:48:26.183Z,0
2016-11-12T01:49:26.163Z,0
2016-11-12T01:50:25.949Z,0
2016-11-12T01:51:26.447Z,0
2016-11-12T01:52:25.848Z,0
2016-11-12T01:53:25.638Z,0
2016-11-12T01:54:26.364Z,0
2016-11-12T01:55:26.191Z,0
2016-11-12T01:56:27.511Z,0
2016-11-12T01:57:25.447Z,0
2016-11-12T01:58:26.189Z,0
2016-11-12T01:59:26.427Z,0
2016-11-12T02:00:26.011Z,0
2016-11-12T02:01:25.844Z,0
2016-11-12T02:02:26.253Z,0
2016-11-12T02:03:26.378Z,0
2016-11-12T02:04:25.951Z,0
2016-11-12T02:05:26.755Z,0
2016-11-12T02:06:25.964Z,0
2016-11-12T02:07:25.951Z,0
2016-11-12T02:08:26.455Z,0
2016-11-12T02:09:25.769Z,0
2016-11-12T02:10:25.727Z,0
2016-11-12T02:11:27.255Z,0
2016-11-12T02:12:25.936Z,0
2016-11-12T02:13:26.431Z,0
2016-11-12T02:14:26.908Z,0
2016-11-12T02:15:25.868Z,0
2016-11-12T02:16:26.275Z,0
2016-11-12T02:17:26.063Z,0
2016-11-12T02:18:26.005Z,0
2016-11-12T02:19:25.924Z,0
2016-11-12T02:20:26.679Z,0
2016-11-12T02:21:26.659Z,0
2016-11-12T02:22:26.024Z,0
2016-11-12T02:23:26.198Z,0
2016-11-12T02:24:26.143Z,0
2016-11-12T02:25:26.881Z,0
2016-11-12T02:26:26.376Z,0
2016-11-12T02:27:26.161Z,0
2016-11-12T02:28:25.880Z,0
2016-11-12T02:29:27.799Z,0
2016-11-12T02:30:26.522Z,0
2016-11-12T02:31:26.436Z,0
2016-11-12T02:32:25.856Z,0
2016-11-12T02:33:26.242Z,0
2016-11-12T02:34:26.850Z,0
2016-11-12T02:35:26.201Z,0
2016-11-12T02:36:25.671Z,0
2016-11-12T02:37:25.553Z,0
2016-11-12T02:38:26.220Z,0
2016-11-12T02:39:25.593Z,0
2016-11-12T02:40:26.604Z,0
2016-11-12T02:41:25.954Z,0
2016-11-12T02:42:26.829Z,0
2016-11-12T02:43:26.847Z,0
2016-11-12T02:44:25.622Z,0
2016-11-12T02:45:26.104Z,0
2016-11-12T02:46:26.341Z,0
2016-11-12T02:47:26.724Z,0
2016-11-12T02:48:26.937Z,0
2016-11-12T02:49:27.043Z,0
2016-11-12T02:50:26.327Z,0
2016-11-12T02:51:27.450Z,0
2016-11-12T02:52:26.763Z,0
2016-11-12T02:53:27.726Z,0
2016-11-12T02:54:27.215Z,0
2016-11-12T02:55:27.210Z,0
2016-11-12T02:56:27.455Z,0
2016-11-12T02:57:26.971Z,0
2016-11-12T02:58:28.488Z,0
2016-11-12T02:59:26.404Z,0
2016-11-12T03:00:26.437Z,0
2016-11-12T03:01:26.703Z,0
2016-11-12T03:02:26.875Z,0
2016-11-12T03:03:26.950Z,0
2016-11-12T03:04:26.624Z,0
2016-11-12T03:05:27.114Z,0
2016-11-12T03:06:27.269Z,0
2016-11-12T03:07:26.676Z,0
2016-11-12T03:08:26.352Z,0
2016-11-12T03:09:26.654Z,0
2016-11-12T03:10:27.683Z,0
2016-11-12T03:11:26.594Z,0
2016-11-12T03:12:26.605Z,0
2016-11-12T03:13:26.077Z,0
2016-11-12T03:14:27.080Z,0
2016-11-12T03:15:26.914Z,0
2016-11-12T03:16:26.845Z,0
2016-11-12T03:17:26.732Z,0
2016-11-12T03:18:26.913Z,0
2016-11-12T03:19:26.101Z,0
2016-11-12T03:20:26.560Z,0
2016-11-12T03:21:25.985Z,0
2016-11-12T03:22:27.530Z,0
2016-11-12T03:23:27.529Z,0
2016-11-12T03:24:27.268Z,0
2016-11-12T03:25:28.500Z,0
2016-11-12T03:26:27.283Z,0
2016-11-12T03:27:26.946Z,0
2016-11-12T03:28:26.905Z,0
2016-11-12T03:29:27.550Z,0
2016-11-12T03:30:28.452Z,0
2016-11-12T03:31:27.010Z,0
2016-11-12T03:32:27.129Z,0
2016-11-12T03:33:26.762Z,0
2016-11-12T03:34:28.110Z,0
2016-11-12T03:35:25.893Z,0
2016-11-12T03:36:26.629Z,0
2016-11-12T03:37:29.005Z,0
2016-11-12T03:38:25.989Z,0
2016-11-12T03:39:26.870Z,0
2016-11-12T03:40:26.110Z,0
2016-11-12T03:41:27.567Z,0
2016-11-12T03:42:27.390Z,0
2016-11-12T03:43:27.333Z,0
2016-11-12T03:44:26.939Z,0
2016-11-12T03:45:28.181Z,0
2016-11-12T03:46:27.318Z,0
2016-11-12T03:47:26.634Z,0
2016-11-12T03:48:27.034Z,0
2016-11-12T03:49:28.178Z,0
2016-11-12T03:50:27.653Z,0
2016-11-12T03:51:28.219Z,0
2016-11-12T03:52:27.534Z,0
2016-11-12T03:53:28.402Z,0
2016-11-12T03:54:26.936Z,0
2016-11-12T03:55:27.684Z,0
2016-11-12T03:56:27.429Z,0
2016-11-12T03:57:27.622Z,0
2016-11-12T03:58:27.662Z,0
2016-11-12T03:59:27.156Z,0
2016-11-12T04:00:27.641Z,0
2016-11-12T04:01:26.567Z,0
2016-11-12T04:02:26.927Z,0
2016-11-12T04:03:26.900Z,0
2016-11-12T04:04:27.419Z,0
2016-11-12T04:05:27.268Z,0
2016-11-12T04:06:26.672Z,0
2016-11-12T04:07:28.356Z,0
2016-11-12T04:08:28.092Z,0
2016-11-12T04:09:27.848Z,0
2016-11-12T04:10:27.632Z,0
2016-11-12T04:11:27.381Z,0
2016-11-12T04:12:30.160Z,0
2016-11-12T04:13:28.227Z,0
2016-11-12T04:14:27.231Z,0
2016-11-12T04:15:28.522Z,0
2016-11-12T04:16:27.171Z,0
2016-11-12T04:17:26.949Z,0
2016-11-12T04:18:26.792Z,0
2016-11-12T04:19:28.641Z,0
2016-11-12T04:20:28.329Z,0
2016-11-12T04:21:26.801Z,0
2016-11-12T04:22:28.325Z,0
2016-11-12T04:23:27.235Z,0
2016-11-12T04:24:28.330Z,0
2016-11-12T04:25:27.585Z,0
2016-11-12T04:26:26.824Z,0
2016-11-12T04:27:29.793Z,0
2016-11-12T04:28:27.887Z,0
2016-11-12T04:29:29.479Z,0
2016-11-12T04:30:29.572Z,0
2016-11-12T04:31:27.396Z,0
2016-11-12T04:32:26.701Z,0
2016-11-12T04:33:27.422Z,0
2016-11-12T04:34:26.772Z,0
2016-11-12T04:35:28.102Z,0
2016-11-12T04:36:28.766Z,0
2016-11-12T04:37:26.959Z,0
2016-11-12T04:38:28.928Z,0
2016-11-12T04:39:28.348Z,0
2016-11-12T04:40:27.522Z,0
2016-11-12T04:41:27.293Z,0
2016-11-12T04:42:28.096Z,0
2016-11-12T04:43:27.764Z,0
2016-11-12T04:44:27.692Z,0
2016-11-12T04:45:28.044Z,0
2016-11-12T04:46:28.691Z,0
2016-11-12T04:47:27.176Z,0
2016-11-12T04:48:27.903Z,0
2016-11-12T04:49:28.256Z,0
2016-11-12T04:50:28.489Z,0
2016-11-12T04:51:28.228Z,0
2016-11-12T04:52:28.131Z,0
2016-11-12T04:53:27.912Z,0
2016-11-12T04:54:29.154Z,0
2016-11-12T04:55:27.632Z,0
2016-11-12T04:56:28.293Z,0
2016-11-12T04:57:28.288Z,0
2016-11-12T04:58:27.677Z,0
2016-11-12T04:59:28.083Z,0
2016-11-12T05:00:28.401Z,0
2016-11-12T05:01:28.258Z,0
2016-11-12T05:02:28.306Z,0
2016-11-12T05:03:28.656Z,0
2016-11-12T05:04:28.748Z,0
2016-11-12T05:05:28.692Z,0
2016-11-12T05:06:28.242Z,0
2016-11-12T05:07:29.221Z,0
2016-11-12T05:08:28.516Z,0
2016-11-12T05:09:27.186Z,0
2016-11-12T05:10:28.835Z,0
2016-11-12T05:11:29.643Z,0
2016-11-12T05:12:29.155Z,0
2016-11-12T05:13:28.604Z,0
2016-11-12T05:14:30.626Z,0
2016-11-12T05:15:28.687Z,0
2016-11-12T05:16:29.565Z,0
2016-11-12T05:17:29.143Z,0
2016-11-12T05:18:29.348Z,0
2016-11-12T05:19:30.408Z,0
2016-11-12T05:20:28.542Z,0
2016-11-12T05:21:28.896Z,0
2016-11-12T05:22:29.199Z,0
2016-11-12T05:23:28.853Z,0
2016-11-12T05:24:29.028Z,0
2016-11-12T05:25:29.691Z,0
2016-11-12T05:26:29.862Z,0
2016-11-12T05:27:28.558Z,0
2016-11-12T05:28:29.196Z,0
2016-11-12T05:29:29.014Z,0
2016-11-12T05:30:29.531Z,0
2016-11-12T05:31:28.504Z,0
2016-11-12T05:32:28.934Z,0
2016-11-12T05:33:29.189Z,0
2016-11-12T05:34:28.459Z,0
2016-11-12T05:35:28.871Z,0
2016-11-12T05:36:28.870Z,0
2016-11-12T05:37:29.452Z,0
2016-11-12T05:38:28.742Z,0
2016-11-12T05:39:29.262Z,0
2016-11-12T05:40:28.817Z,0
2016-11-12T05:41:28.987Z,0
2016-11-12T05:42:29.065Z,0
2016-11-12T05:43:28.990Z,0
2016-11-12T05:44:30.268Z,0
2016-11-12T05:45:30.699Z,0
2016-11-12T05:46:29.981Z,0
2016-11-12T05:47:29.146Z,0
2016-11-12T05:48:29.229Z,0
2016-11-12T05:49:29.625Z,0
2016-11-12T05:50:28.708Z,0
2016-11-12T05:51:29.972Z,0
2016-11-12T05:52:30.541Z,0
2016-11-12T05:53:29.181Z,0
2016-11-12T05:54:28.925Z,0
2016-11-12T05:55:30.500Z,0
2016-11-12T05:56:29.542Z,0
2016-11-12T05:57:29.308Z,0
2016-11-12T05:58:29.163Z,0
2016-11-12T05:59:28.100Z,0
2016-11-12T06:00:29.031Z,0
2016-11-12T06:01:29.805Z,0
2016-11-12T06:02:29.156Z,0
2016-11-12T06:03:30.197Z,0
2016-11-12T06:04:29.958Z,0
2016-11-12T06:05:28.846Z,0
2016-11-12T06:06:28.819Z,0
2016-11-12T06:07:30.409Z,0
2016-11-12T06:08:29.760Z,0
2016-11-12T06:09:29.037Z,0
2016-11-12T06:10:29.901Z,0
2016-11-12T06:11:29.888Z,0
2016-11-12T06:12:30.097Z,0
2016-11-12T06:13:29.117Z,0
2016-11-12T06:14:28.671Z,0
2016-11-12T06:15:29.795Z,0
2016-11-12T06:16:29.648Z,0
2016-11-12T06:17:29.745Z,0
2016-11-12T06:18:29.960Z,0
2016-11-12T06:19:29.372Z,0
2016-11-12T06:20:28.956Z,0
2016-11-12T06:21:29.478Z,0
2016-11-12T06:22:29.270Z,0
2016-11-12T06:23:28.399Z,0
2016-11-12T06:24:29.560Z,0
2016-11-12T06:25:29.915Z,0
2016-11-12T06:26:29.416Z,0
2016-11-12T06:27:27.864Z,5
2016-11-12T06:28:29.004Z,5
2016-11-12T06:29:28.303Z,5
2016-11-12T06:30:29.027Z,5
2016-11-12T06:31:29.037Z,5
2016-11-12T06:32:30.073Z,5
2016-11-12T06:33:28.816Z,5
2016-11-12T06:34:29.411Z,10
2016-11-12T06:35:28.086Z,10
2016-11-12T06:36:28.821Z,10
2016-11-12T06:37:27.894Z,10
2016-11-12T06:38:28.822Z,10
2016-11-12T06:39:30.528Z,10
2016-11-12T06:40:29.085Z,10
2016-11-12T06:41:29.590Z,10
2016-11-12T06:42:29.029Z,15
2016-11-12T06:43:29.598Z,15
2016-11-12T06:44:30.110Z,20
2016-11-12T06:45:28.581Z,20
2016-11-12T06:46:29.061Z,25
2016-11-12T06:47:29.292Z,30
2016-11-12T06:48:29.544Z,35
2016-11-12T06:49:29.887Z,35
2016-11-12T06:50:29.116Z,40
2016-11-12T06:51:29.313Z,45
2016-11-12T06:52:29.284Z,45
2016-11-12T06:53:28.979Z,50
2016-11-12T06:54:29.519Z,50
2016-11-12T06:55:29.715Z,50
2016-11-12T06:56:28.874Z,55
2016-11-12T06:57:29.695Z,60
2016-11-12T06:58:29.059Z,60
2016-11-12T06:59:28.869Z,60
2016-11-12T07:00:30.796Z,60
2016-11-12T07:01:29.773Z,65
2016-11-12T07:02:29.617Z,65
2016-11-12T07:03:28.959Z,65
2016-11-12T07:04:29.365Z,70
2016-11-12T07:05:29.393Z,70
2016-11-12T07:06:30.016Z,75
2016-11-12T07:07:29.852Z,75
2016-11-12T07:08:28.829Z,75
2016-11-12T07:09:28.558Z,80
2016-11-12T07:10:29.062Z,80
2016-11-12T07:11:29.744Z,85
2016-11-12T07:12:29.302Z,85
2016-11-12T07:13:29.899Z,90
2016-11-12T07:14:29.914Z,90
2016-11-12T07:15:30.071Z,90
2016-11-12T07:16:28.599Z,95
2016-11-12T07:17:30.131Z,100
2016-11-12T07:18:29.993Z,95
2016-11-12T07:19:28.913Z,100
2016-11-12T07:20:29.544Z,100
2016-11-12T07:21:30.418Z,105
2016-11-12T07:22:29.076Z,105
2016-11-12T07:23:29.161Z,110
2016-11-12T07:24:30.169Z,115
2016-11-12T07:25:29.640Z,120
2016-11-12T07:26:30.093Z,120
2016-11-12T07:27:29.889Z,125
2016-11-12T07:28:29.854Z,130
2016-11-12T07:29:29.699Z,130
2016-11-12T07:30:29.397Z,130
2016-11-12T07:31:31.736Z,135
2016-11-12T07:32:29.976Z,140
2016-11-12T07:33:31.379Z,140
2016-11-12T07:34:29.862Z,145
2016-11-12T07:35:29.311Z,150
2016-11-12T07:36:29.836Z,150
2016-11-12T07:37:30.023Z,150
2016-11-12T07:38:29.409Z,155
2016-11-12T07:39:30.331Z,155
2016-11-12T07:40:29.902Z,160
2016-11-12T07:41:30.163Z,160
2016-11-12T07:42:29.473Z,165
2016-11-12T07:43:29.955Z,165
2016-11-12T07:44:30.057Z,170
2016-11-12T07:45:28.757Z,170
2016-11-12T07:46:29.388Z,170
2016-11-12T07:47:29.559Z,175
2016-11-12T07:48:29.521Z,185
2016-11-12T07:49:29.926Z,195
2016-11-12T07:50:29.324Z,195
2016-11-12T07:51:29.631Z,210
2016-11-12T07:52:29.720Z,210
2016-11-12T07:53:29.842Z,210
2016-11-12T07:54:30.391Z,205
2016-11-12T07:55:30.052Z,205
2016-11-12T07:56:30.627Z,210
2016-11-12T07:57:29.623Z,210
2016-11-12T07:58:29.936Z,215
2016-11-12T07:59:29.781Z,225
2016-11-12T08:00:29.984Z,230
2016-11-12T08:01:32.353Z,230
2016-11-12T08:02:30.847Z,225
2016-11-12T08:03:29.760Z,225
2016-11-12T08:04:29.644Z,215
2016-11-12T08:05:30.497Z,230
2016-11-12T08:06:29.727Z,250
2016-11-12T08:07:29.939Z,255
2016-11-12T08:08:29.219Z,265
2016-11-12T08:09:29.721Z,275
2016-11-12T08:10:30.352Z,275
2016-11-12T08:11:30.556Z,280
2016-11-12T08:12:30.624Z,275
2016-11-12T08:13:29.662Z,275
2016-11-12T08:14:31.056Z,275
2016-11-12T08:15:30.763Z,275
2016-11-12T08:16:30.843Z,290
2016-11-12T08:17:30.920Z,305
2016-11-12T08:18:29.754Z,305
2016-11-12T08:19:31.895Z,295
2016-11-12T08:20:30.783Z,315
2016-11-12T08:21:29.779Z,320
2016-11-12T08:22:30.897Z,325
2016-11-12T08:23:31.097Z,335
2016-11-12T08:24:31.185Z,325
2016-11-12T08:25:29.798Z,335
2016-11-12T08:26:31.439Z,335
2016-11-12T08:27:31.063Z,330
2016-11-12T08:28:29.817Z,325
2016-11-12T08:29:31.225Z,315
2016-11-12T08:30:30.264Z,300
2016-11-12T08:31:30.626Z,305
2016-11-12T08:32:30.309Z,310
2016-11-12T08:33:29.967Z,310
2016-11-12T08:34:30.310Z,305
2016-11-12T08:35:31.374Z,305
2016-11-12T08:36:31.698Z,305
2016-11-12T08:37:29.368Z,310
2016-11-12T08:38:29.964Z,305
2016-11-12T08:39:30.671Z,305
2016-11-12T08:40:30.308Z,310
2016-11-12T08:41:30.522Z,315
2016-11-12T08:42:31.414Z,320
2016-11-12T08:43:30.893Z,330
2016-11-12T08:44:29.899Z,325
2016-11-12T08:45:30.015Z,325
2016-11-12T08:46:30.070Z,330
2016-11-12T08:47:30.177Z,330
2016-11-12T08:48:30.160Z,335
2016-11-12T08:49:31.044Z,330
2016-11-12T08:50:30.664Z,335
2016-11-12T08:51:30.947Z,335
2016-11-12T08:52:30.794Z,340
2016-11-12T08:53:31.760Z,340
2016-11-12T08:54:32.063Z,345
2016-11-12T08:55:30.389Z,370
2016-11-12T08:56:31.500Z,390
2016-11-12T08:57:32.311Z,405
2016-11-12T08:58:29.982Z,425
2016-11-12T08:59:30.928Z,435
2016-11-12T09:00:30.806Z,420
2016-11-12T09:01:31.135Z,410
2016-11-12T09:02:29.692Z,400
2016-11-12T09:03:31.227Z,365
2016-11-12T09:04:31.889Z,350
2016-11-12T09:05:31.492Z,345
2016-11-12T09:06:31.675Z,355
2016-11-12T09:07:31.592Z,355
2016-11-12T09:08:30.082Z,350
2016-11-12T09:09:31.037Z,345
2016-11-12T09:10:30.803Z,340
2016-11-12T09:11:30.527Z,345
2016-11-12T09:12:31.127Z,335
2016-11-12T09:13:30.516Z,350
2016-11-12T09:14:31.130Z,340
2016-11-12T09:15:30.766Z,340
2016-11-12T09:16:31.463Z,340
2016-11-12T09:17:29.984Z,340
2016-11-12T09:18:31.961Z,350
2016-11-12T09:19:31.438Z,345
2016-11-12T09:20:31.283Z,360
2016-11-12T09:21:31.067Z,360
2016-11-12T09:22:31.529Z,350
2016-11-12T09:23:32.797Z,345
2016-11-12T09:24:32.309Z,340
2016-11-12T09:25:30.642Z,340
2016-11-12T09:26:30.698Z,350
2016-11-12T09:27:30.540Z,350
2016-11-12T09:28:30.971Z,350
2016-11-12T09:29:31.995Z,360
2016-11-12T09:30:30.886Z,365
2016-11-12T09:31:31.522Z,370
2016-11-12T09:32:31.484Z,380
2016-11-12T09:33:32.068Z,390
2016-11-12T09:34:31.508Z,385
2016-11-12T09:35:31.056Z,375
2016-11-12T09:36:31.342Z,375
2016-11-12T09:37:31.149Z,365
2016-11-12T09:38:31.063Z,360
2016-11-12T09:39:31.244Z,370
2016-11-12T09:40:31.521Z,360
2016-11-12T09:41:30.847Z,360
2016-11-12T09:42:31.585Z,360
2016-11-12T09:43:30.866Z,365
2016-11-12T09:44:31.167Z,360
2016-11-12T09:45:32.366Z,355
2016-11-12T09:46:31.245Z,350
2016-11-12T09:47:31.070Z,350
2016-11-12T09:48:31.738Z,350
2016-11-12T09:49:31.498Z,350
2016-11-12T09:50:32.442Z,350
2016-11-12T09:51:32.328Z,350
2016-11-12T09:52:31.635Z,350
2016-11-12T09:53:32.678Z,345
2016-11-12T09:54:31.242Z,345
2016-11-12T09:55:31.713Z,345
2016-11-12T09:56:31.867Z,350
2016-11-12T09:57:31.581Z,355
2016-11-12T09:58:30.693Z,350
2016-11-12T09:59:31.730Z,350
2016-11-12T10:00:32.305Z,350
2016-11-12T10:01:32.067Z,350
2016-11-12T10:02:30.933Z,345
2016-11-12T10:03:31.171Z,345
2016-11-12T10:04:31.558Z,345
2016-11-12T10:05:31.267Z,345
2016-11-12T10:06:32.540Z,350
2016-11-12T10:07:31.799Z,345
2016-11-12T10:08:31.775Z,340
2016-11-12T10:09:31.666Z,340
2016-11-12T10:10:31.728Z,345
2016-11-12T10:11:31.887Z,345
2016-11-12T10:12:31.853Z,340
2016-11-12T10:13:31.290Z,340
2016-11-12T10:14:31.926Z,345
2016-11-12T10:15:31.466Z,345
2016-11-12T10:16:31.600Z,345
2016-11-12T10:17:31.875Z,350
2016-11-12T10:18:32.476Z,345
2016-11-12T10:19:31.474Z,345
2016-11-12T10:20:32.039Z,350
2016-11-12T10:21:31.892Z,345
2016-11-12T10:22:31.968Z,345
2016-11-12T10:23:32.405Z,345
2016-11-12T10:24:31.680Z,345
2016-11-12T10:25:32.325Z,345
2016-11-12T10:26:32.448Z,350
2016-11-12T10:27:32.018Z,345
2016-11-12T10:28:31.380Z,315
2016-11-12T10:29:32.014Z,345
2016-11-12T10:30:31.756Z,370
2016-11-12T10:31:31.598Z,375
2016-11-12T10:32:33.679Z,385
2016-11-12T10:33:31.717Z,395
2016-11-12T10:34:32.234Z,400
2016-11-12T10:35:32.809Z,405
2016-11-12T10:36:32.990Z,410
2016-11-12T10:37:31.738Z,410
2016-11-12T10:38:32.392Z,430
2016-11-12T10:39:32.381Z,445
2016-11-12T10:40:31.931Z,435
2016-11-12T10:41:32.349Z,485
2016-11-12T10:42:32.151Z,515
2016-11-12T10:43:32.606Z,530
2016-11-12T10:44:32.138Z,545
2016-11-12T10:45:32.018Z,550
2016-11-12T10:46:32.903Z,565
2016-11-12T10:47:32.850Z,540
2016-11-12T10:48:32.607Z,530
2016-11-12T10:49:32.320Z,530
2016-11-12T10:50:33.722Z,540
2016-11-12T10:51:32.362Z,515
2016-11-12T10:52:32.190Z,505
2016-11-12T10:53:32.097Z,480
2016-11-12T10:54:32.504Z,470
2016-11-12T10:55:32.570Z,455
2016-11-12T10:56:31.709Z,450
2016-11-12T10:57:33.022Z,450
2016-11-12T10:58:32.183Z,455
2016-11-12T10:59:32.847Z,465
2016-11-12T11:00:32.539Z,475
2016-11-12T11:01:33.609Z,480
2016-11-12T11:02:32.419Z,480
2016-11-12T11:03:32.636Z,475
2016-11-12T11:04:33.335Z,465
2016-11-12T11:05:32.474Z,450
2016-11-12T11:06:32.974Z,430
2016-11-12T11:07:32.836Z,410
2016-11-12T11:08:33.349Z,405
2016-11-12T11:09:32.912Z,385
2016-11-12T11:10:31.905Z,370
2016-11-12T11:11:33.265Z,365
2016-11-12T11:12:32.691Z,350
2016-11-12T11:13:32.491Z,350
2016-11-12T11:14:32.348Z,345
2016-11-12T11:15:33.068Z,340
2016-11-12T11:16:32.907Z,330
2016-11-12T11:17:33.657Z,320
2016-11-12T11:18:32.667Z,310
2016-11-12T11:19:32.600Z,295
2016-11-12T11:20:32.774Z,290
2016-11-12T11:21:32.899Z,280
2016-11-12T11:22:32.420Z,275
2016-11-12T11:23:33.416Z,305
2016-11-12T11:24:33.063Z,340
2016-11-12T11:25:33.020Z,355
2016-11-12T11:26:32.135Z,360
2016-11-12T11:27:32.458Z,360
2016-11-12T11:28:34.003Z,365
2016-11-12T11:29:32.223Z,345
2016-11-12T11:30:33.628Z,360
2016-11-12T11:31:32.947Z,345
2016-11-12T11:32:33.620Z,335
2016-11-12T11:33:33.512Z,330
2016-11-12T11:34:32.454Z,355
2016-11-12T11:35:31.988Z,370
2016-11-12T11:36:33.028Z,375
2016-11-12T11:37:34.514Z,375
2016-11-12T11:38:33.691Z,370
2016-11-12T11:39:33.841Z,365
2016-11-12T11:40:32.382Z,365
2016-11-12T11:41:33.587Z,365
2016-11-12T11:42:33.841Z,360
2016-11-12T11:43:33.251Z,350
2016-11-12T11:44:33.419Z,345
2016-11-12T11:45:33.330Z,345
2016-11-12T11:46:32.756Z,350
2016-11-12T11:47:34.092Z,355
2016-11-12T11:48:34.211Z,360
2016-11-12T11:49:34.351Z,360
2016-11-12T11:50:33.460Z,365
2016-11-12T11:51:34.058Z,370
2016-11-12T11:52:33.675Z,365
2016-11-12T11:53:33.658Z,345
2016-11-12T11:54:32.931Z,355
2016-11-12T11:55:33.972Z,365
2016-11-12T11:56:33.617Z,370
2016-11-12T11:57:33.847Z,375
2016-11-12T11:58:33.459Z,380
2016-11-12T11:59:34.413Z,380
2016-11-12T12:00:34.625Z,380
2016-11-12T12:01:33.553Z,380
2016-11-12T12:02:33.518Z,390
2016-11-12T12:03:34.124Z,390
2016-11-12T12:04:33.536Z,400
2016-11-12T12:05:34.890Z,390
2016-11-12T12:06:33.872Z,390
2016-11-12T12:07:34.283Z,395
2016-11-12T12:08:34.449Z,400
2016-11-12T12:09:33.640Z,400
2016-11-12T12:10:33.762Z,385
2016-11-12T12:11:33.954Z,370
2016-11-12T12:12:34.230Z,350
2016-11-12T12:13:34.416Z,335
2016-11-12T12:14:33.791Z,330
2016-11-12T12:15:34.139Z,330
2016-11-12T12:16:34.285Z,315
2016-11-12T12:17:33.786Z,310
2016-11-12T12:18:34.074Z,305
2016-11-12T12:19:33.571Z,305
2016-11-12T12:20:33.223Z,305
2016-11-12T12:21:33.417Z,290
2016-11-12T12:22:33.725Z,290
2016-11-12T12:23:34.548Z,285
2016-11-12T12:24:34.613Z,285
2016-11-12T12:25:33.885Z,275
2016-11-12T12:26:34.613Z,280
2016-11-12T12:27:33.327Z,290
2016-11-12T12:28:34.565Z,285
2016-11-12T12:29:35.030Z,285
2016-11-12T12:30:35.032Z,280
2016-11-12T12:31:33.512Z,290
2016-11-12T12:32:33.931Z,315
2016-11-12T12:33:34.929Z,320
2016-11-12T12:34:35.463Z,335
2016-11-12T12:35:34.427Z,355
2016-11-12T12:36:33.803Z,385
2016-11-12T12:37:34.191Z,405
2016-11-12T12:38:34.516Z,410
2016-11-12T12:39:34.465Z,415
2016-11-12T12:40:34.973Z,425
2016-11-12T12:41:34.276Z,440
2016-11-12T12:42:35.697Z,455
2016-11-12T12:43:33.608Z,460
2016-11-12T12:44:34.689Z,445
2016-11-12T12:45:33.894Z,445
2016-11-12T12:46:33.806Z,460
2016-11-12T12:47:36.171Z,470
2016-11-12T12:48:34.314Z,490
2016-11-12T12:49:34.762Z,495
2016-11-12T12:50:35.700Z,515
2016-11-12T12:51:35.325Z,505
2016-11-12T12:52:34.700Z,485
2016-11-12T12:53:33.955Z,480
2016-11-12T12:54:35.601Z,475
2016-11-12T12:55:35.419Z,490
2016-11-12T12:56:35.238Z,500
2016-11-12T12:57:34.405Z,465
2016-11-12T12:58:35.121Z,405
2016-11-12T12:59:34.567Z,370
2016-11-12T13:00:34.925Z,355
2016-11-12T13:01:35.959Z,350
2016-11-12T13:02:34.758Z,355
2016-11-12T13:03:34.997Z,360
2016-11-12T13:04:35.140Z,365
2016-11-12T13:05:34.363Z,365
2016-11-12T13:06:34.688Z,345
2016-11-12T13:07:34.199Z,370
2016-11-12T13:08:34.073Z,385
2016-11-12T13:09:34.807Z,385
2016-11-12T13:10:35.198Z,385
2016-11-12T13:11:35.171Z,395
2016-11-12T13:12:35.179Z,405
2016-11-12T13:13:35.463Z,395
2016-11-12T13:14:35.766Z,380
2016-11-12T13:15:35.092Z,380
2016-11-12T13:16:35.604Z,355
2016-11-12T13:17:34.607Z,340
2016-11-12T13:18:34.697Z,330
2016-11-12T13:19:35.376Z,335
2016-11-12T13:20:35.602Z,345
2016-11-12T13:21:34.809Z,345
2016-11-12T13:22:34.779Z,345
2016-11-12T13:23:36.109Z,330
2016-11-12T13:24:35.457Z,330
2016-11-12T13:25:37.140Z,330
2016-11-12T13:26:35.276Z,325
2016-11-12T13:27:35.689Z,325
2016-11-12T13:28:36.051Z,325
2016-11-12T13:29:34.399Z,325
2016-11-12T13:30:35.079Z,315
2016-11-12T13:31:34.848Z,310
2016-11-12T13:32:35.050Z,300
2016-11-12T13:33:35.612Z,295
2016-11-12T13:34:34.563Z,275
2016-11-12T13:35:34.323Z,290
2016-11-12T13:36:35.451Z,285
2016-11-12T13:37:34.566Z,280
2016-11-12T13:38:34.923Z,275
2016-11-12T13:39:35.381Z,265
2016-11-12T13:40:36.319Z,260
2016-11-12T13:41:34.609Z,250
2016-11-12T13:42:35.020Z,240
2016-11-12T13:43:35.522Z,230
2016-11-12T13:44:35.121Z,230
2016-11-12T13:45:35.083Z,225
2016-11-12T13:46:34.679Z,220
2016-11-12T13:47:35.782Z,210
2016-11-12T13:48:35.873Z,200
2016-11-12T13:49:35.394Z,185
2016-11-12T13:50:35.528Z,160
2016-11-12T13:51:35.988Z,145
2016-11-12T13:52:35.213Z,140
2016-11-12T13:53:35.361Z,130
2016-11-12T13:54:35.511Z,130
2016-11-12T13:55:35.271Z,145
2016-11-12T13:56:35.060Z,150
2016-11-12T13:57:35.918Z,145
2016-11-12T13:58:35.844Z,145
2016-11-12T13:59:35.911Z,145
2016-11-12T14:00:35.874Z,145
2016-11-12T14:01:36.353Z,145
2016-11-12T14:02:35.729Z,150
2016-11-12T14:03:35.410Z,155
2016-11-12T14:04:35.097Z,155
2016-11-12T14:05:35.228Z,155
2016-11-12T14:06:35.332Z,155
2016-11-12T14:07:36.296Z,150
2016-11-12T14:08:35.879Z,145
2016-11-12T14:09:36.047Z,140
2016-11-12T14:10:34.919Z,140
2016-11-12T14:11:35.676Z,140
2016-11-12T14:12:36.038Z,135
2016-11-12T14:13:36.425Z,135
2016-11-12T14:14:36.835Z,130